sensor_id;sensor_type;location;lat;lon;timestamp;temperature;humidity
40253;DHT22;25972;51.854;4.534;2022-07-06T00:00:51;14.60;99.90
40253;DHT22;25972;51.854;4.534;2022-07-06T00:03:17;14.60;99.90
40253;DHT22;25972;51.854;4.534;2022-07-06T00:05:43;14.50;99.90
40253;DHT22;25972;51.854;4.534;2022-07-06T00:08:08;14.50;99.90
40253;DHT22;25972;51.854;4.534;2022-07-06T00:10:34;14.50;99.90
40253;DHT22;25972;51.854;4.534;2022-07-06T00:13:00;14.50;99.90
40253;DHT22;25972;51.854;4.534;2022-07-06T00:15:25;14.40;99.90
40253;DHT22;25972;51.854;4.534;2022-07-06T00:17:51;14.40;99.90
40253;DHT22;25972;51.854;4.534;2022-07-06T00:20:18;14.40;99.90
40253;DHT22;25972;51.854;4.534;2022-07-06T00:22:44;14.40;99.90
40253;DHT22;25972;51.854;4.534;2022-07-06T00:25:10;14.30;99.90
40253;DHT22;25972;51.854;4.534;2022-07-06T00:27:35;14.30;99.90
40253;DHT22;25972;51.854;4.534;2022-07-06T00:30:02;14.30;99.90
40253;DHT22;25972;51.854;4.534;2022-07-06T00:32:28;14.20;99.90
40253;DHT22;25972;51.854;4.534;2022-07-06T00:34:54;14.20;99.90
40253;DHT22;25972;51.854;4.534;2022-07-06T00:37:20;14.20;99.90
40253;DHT22;25972;51.854;4.534;2022-07-06T00:39:45;14.30;99.90
40253;DHT22;25972;51.854;4.534;2022-07-06T00:42:11;14.20;99.90
40253;DHT22;25972;51.854;4.534;2022-07-06T00:44:37;14.20;99.90
40253;DHT22;25972;51.854;4.534;2022-07-06T00:47:03;14.20;99.90
40253;DHT22;25972;51.854;4.534;2022-07-06T00:49:29;14.20;99.90
40253;DHT22;25972;51.854;4.534;2022-07-06T00:52:14;14.20;99.90
40253;DHT22;25972;51.854;4.534;2022-07-06T00:54:41;14.20;99.90
40253;DHT22;25972;51.854;4.534;2022-07-06T00:57:09;14.10;99.90
40253;DHT22;25972;51.854;4.534;2022-07-06T00:59:35;14.10;99.90
40253;DHT22;25972;51.854;4.534;2022-07-06T01:02:02;14.10;99.90
40253;DHT22;25972;51.854;4.534;2022-07-06T01:04:28;14.00;99.90
40253;DHT22;25972;51.854;4.534;2022-07-06T01:06:53;14.10;99.90
40253;DHT22;25972;51.854;4.534;2022-07-06T01:09:19;14.00;99.90
40253;DHT22;25972;51.854;4.534;2022-07-06T01:11:46;14.00;99.90
40253;DHT22;25972;51.854;4.534;2022-07-06T01:14:12;14.00;99.90
40253;DHT22;25972;51.854;4.534;2022-07-06T01:16:39;14.00;99.90
40253;DHT22;25972;51.854;4.534;2022-07-06T01:19:05;13.90;99.90
40253;DHT22;25972;51.854;4.534;2022-07-06T01:21:31;13.90;99.90
40253;DHT22;25972;51.854;4.534;2022-07-06T01:23:56;13.90;99.90
40253;DHT22;25972;51.854;4.534;2022-07-06T01:26:22;13.90;99.90
40253;DHT22;25972;51.854;4.534;2022-07-06T01:28:51;13.90;99.90
40253;DHT22;25972;51.854;4.534;2022-07-06T01:31:19;13.80;99.90
40253;DHT22;25972;51.854;4.534;2022-07-06T01:33:46;13.80;99.90
40253;DHT22;25972;51.854;4.534;2022-07-06T01:36:12;13.80;99.90
40253;DHT22;25972;51.854;4.534;2022-07-06T01:38:55;13.80;99.90
40253;DHT22;25972;51.854;4.534;2022-07-06T01:41:23;13.80;99.90
40253;DHT22;25972;51.854;4.534;2022-07-06T01:43:49;13.80;99.90
40253;DHT22;25972;51.854;4.534;2022-07-06T01:46:15;13.70;99.90
40253;DHT22;25972;51.854;4.534;2022-07-06T01:48:41;13.70;99.90
40253;DHT22;25972;51.854;4.534;2022-07-06T01:51:07;13.70;99.90
40253;DHT22;25972;51.854;4.534;2022-07-06T01:53:35;13.70;99.90
40253;DHT22;25972;51.854;4.534;2022-07-06T01:56:01;13.60;99.90
40253;DHT22;25972;51.854;4.534;2022-07-06T01:58:27;13.70;99.90
40253;DHT22;25972;51.854;4.534;2022-07-06T02:00:52;13.60;99.90
40253;DHT22;25972;51.854;4.534;2022-07-06T02:03:18;13.60;99.90
40253;DHT22;25972;51.854;4.534;2022-07-06T02:05:44;13.60;99.90
40253;DHT22;25972;51.854;4.534;2022-07-06T02:08:10;13.60;99.90
40253;DHT22;25972;51.854;4.534;2022-07-06T02:10:35;13.60;99.90
40253;DHT22;25972;51.854;4.534;2022-07-06T02:13:01;13.50;99.90
40253;DHT22;25972;51.854;4.534;2022-07-06T02:15:27;13.50;99.90
40253;DHT22;25972;51.854;4.534;2022-07-06T02:17:53;13.50;99.90
40253;DHT22;25972;51.854;4.534;2022-07-06T02:20:23;13.50;99.90
40253;DHT22;25972;51.854;4.534;2022-07-06T02:22:49;13.50;99.90
40253;DHT22;25972;51.854;4.534;2022-07-06T02:25:15;13.50;99.90
40253;DHT22;25972;51.854;4.534;2022-07-06T02:27:42;13.40;99.90
40253;DHT22;25972;51.854;4.534;2022-07-06T02:30:09;13.40;99.90
40253;DHT22;25972;51.854;4.534;2022-07-06T02:32:36;13.40;99.90
40253;DHT22;25972;51.854;4.534;2022-07-06T02:35:03;13.40;99.90
40253;DHT22;25972;51.854;4.534;2022-07-06T02:37:29;13.40;99.90
40253;DHT22;25972;51.854;4.534;2022-07-06T02:39:55;13.40;99.90
40253;DHT22;25972;51.854;4.534;2022-07-06T02:42:21;13.40;99.90
40253;DHT22;25972;51.854;4.534;2022-07-06T02:44:46;13.40;99.90
40253;DHT22;25972;51.854;4.534;2022-07-06T02:47:12;13.40;99.90
40253;DHT22;25972;51.854;4.534;2022-07-06T02:49:38;13.40;99.90
40253;DHT22;25972;51.854;4.534;2022-07-06T02:52:04;13.30;99.90
40253;DHT22;25972;51.854;4.534;2022-07-06T02:54:31;13.30;99.90
40253;DHT22;25972;51.854;4.534;2022-07-06T02:56:57;13.30;99.90
40253;DHT22;25972;51.854;4.534;2022-07-06T02:59:23;13.30;99.90
40253;DHT22;25972;51.854;4.534;2022-07-06T03:01:49;13.30;99.90
40253;DHT22;25972;51.854;4.534;2022-07-06T03:04:16;13.30;99.90
40253;DHT22;25972;51.854;4.534;2022-07-06T03:06:44;13.30;99.90
40253;DHT22;25972;51.854;4.534;2022-07-06T03:09:10;13.20;99.90
40253;DHT22;25972;51.854;4.534;2022-07-06T03:11:37;13.20;99.90
40253;DHT22;25972;51.854;4.534;2022-07-06T03:14:04;13.20;99.90
40253;DHT22;25972;51.854;4.534;2022-07-06T03:16:33;13.20;99.90
40253;DHT22;25972;51.854;4.534;2022-07-06T03:18:59;13.10;99.90
40253;DHT22;25972;51.854;4.534;2022-07-06T03:21:25;13.10;99.90
40253;DHT22;25972;51.854;4.534;2022-07-06T03:23:51;13.10;99.90
40253;DHT22;25972;51.854;4.534;2022-07-06T03:26:17;13.10;99.90
40253;DHT22;25972;51.854;4.534;2022-07-06T03:28:44;13.10;99.90
40253;DHT22;25972;51.854;4.534;2022-07-06T03:31:10;13.10;99.90
40253;DHT22;25972;51.854;4.534;2022-07-06T03:33:36;13.10;99.90
40253;DHT22;25972;51.854;4.534;2022-07-06T03:36:03;13.10;99.90
40253;DHT22;25972;51.854;4.534;2022-07-06T03:38:31;13.10;99.90
40253;DHT22;25972;51.854;4.534;2022-07-06T03:40:57;13.10;99.90
40253;DHT22;25972;51.854;4.534;2022-07-06T03:43:23;13.10;99.90
40253;DHT22;25972;51.854;4.534;2022-07-06T03:45:49;13.10;99.90
40253;DHT22;25972;51.854;4.534;2022-07-06T03:48:15;13.10;99.90
40253;DHT22;25972;51.854;4.534;2022-07-06T03:50:41;13.20;99.90
40253;DHT22;25972;51.854;4.534;2022-07-06T03:53:08;13.20;99.90
40253;DHT22;25972;51.854;4.534;2022-07-06T03:55:35;13.20;99.90
40253;DHT22;25972;51.854;4.534;2022-07-06T03:58:05;13.30;99.90
40253;DHT22;25972;51.854;4.534;2022-07-06T04:00:31;13.30;99.90
40253;DHT22;25972;51.854;4.534;2022-07-06T04:03:02;13.30;99.90
40253;DHT22;25972;51.854;4.534;2022-07-06T04:05:33;13.40;99.90
40253;DHT22;25972;51.854;4.534;2022-07-06T04:07:59;13.40;99.90
40253;DHT22;25972;51.854;4.534;2022-07-06T04:10:32;13.50;99.90
40253;DHT22;25972;51.854;4.534;2022-07-06T04:12:58;13.60;99.90
40253;DHT22;25972;51.854;4.534;2022-07-06T04:15:25;13.60;99.90
40253;DHT22;25972;51.854;4.534;2022-07-06T04:17:51;13.70;99.90
40253;DHT22;25972;51.854;4.534;2022-07-06T04:20:24;13.70;99.90
40253;DHT22;25972;51.854;4.534;2022-07-06T04:22:52;13.80;99.90
40253;DHT22;25972;51.854;4.534;2022-07-06T04:25:23;13.90;99.90
40253;DHT22;25972;51.854;4.534;2022-07-06T04:27:49;13.90;99.90
40253;DHT22;25972;51.854;4.534;2022-07-06T04:30:15;14.00;99.90
40253;DHT22;25972;51.854;4.534;2022-07-06T04:32:42;14.10;99.90
40253;DHT22;25972;51.854;4.534;2022-07-06T04:35:09;14.20;99.90
40253;DHT22;25972;51.854;4.534;2022-07-06T04:37:35;14.20;99.90
40253;DHT22;25972;51.854;4.534;2022-07-06T04:40:01;14.20;99.90
40253;DHT22;25972;51.854;4.534;2022-07-06T04:42:29;14.30;99.90
40253;DHT22;25972;51.854;4.534;2022-07-06T04:44:55;14.40;99.90
40253;DHT22;25972;51.854;4.534;2022-07-06T04:47:21;14.50;99.90
40253;DHT22;25972;51.854;4.534;2022-07-06T04:49:47;14.60;99.90
40253;DHT22;25972;51.854;4.534;2022-07-06T04:52:14;14.70;99.90
40253;DHT22;25972;51.854;4.534;2022-07-06T04:54:40;14.80;99.90
40253;DHT22;25972;51.854;4.534;2022-07-06T04:57:07;14.90;99.90
40253;DHT22;25972;51.854;4.534;2022-07-06T04:59:33;15.20;99.90
40253;DHT22;25972;51.854;4.534;2022-07-06T05:02:00;15.80;99.90
40253;DHT22;25972;51.854;4.534;2022-07-06T05:04:27;16.90;99.90
40253;DHT22;25972;51.854;4.534;2022-07-06T05:06:55;18.40;99.90
40253;DHT22;25972;51.854;4.534;2022-07-06T05:09:21;19.80;99.90
40253;DHT22;25972;51.854;4.534;2022-07-06T05:11:48;21.20;99.90
40253;DHT22;25972;51.854;4.534;2022-07-06T05:14:14;22.40;99.90
40253;DHT22;25972;51.854;4.534;2022-07-06T05:16:40;22.90;99.90
40253;DHT22;25972;51.854;4.534;2022-07-06T05:19:07;23.60;99.90
40253;DHT22;25972;51.854;4.534;2022-07-06T05:21:33;24.10;98.80
40253;DHT22;25972;51.854;4.534;2022-07-06T05:23:59;24.30;97.60
40253;DHT22;25972;51.854;4.534;2022-07-06T05:26:25;24.30;96.90
40253;DHT22;25972;51.854;4.534;2022-07-06T05:28:51;23.90;96.00
40253;DHT22;25972;51.854;4.534;2022-07-06T05:31:19;23.70;96.00
40253;DHT22;25972;51.854;4.534;2022-07-06T05:33:45;23.80;95.90
40253;DHT22;25972;51.854;4.534;2022-07-06T05:36:11;24.30;95.30
40253;DHT22;25972;51.854;4.534;2022-07-06T05:38:38;24.90;94.50
40253;DHT22;25972;51.854;4.534;2022-07-06T05:41:04;25.60;93.80
40253;DHT22;25972;51.854;4.534;2022-07-06T05:43:32;25.70;92.70
40253;DHT22;25972;51.854;4.534;2022-07-06T05:45:59;26.30;92.10
40253;DHT22;25972;51.854;4.534;2022-07-06T05:48:28;26.70;91.60
40253;DHT22;25972;51.854;4.534;2022-07-06T05:51:12;26.90;90.90
40253;DHT22;25972;51.854;4.534;2022-07-06T05:53:41;26.90;90.50
40253;DHT22;25972;51.854;4.534;2022-07-06T05:56:07;26.90;89.90
40253;DHT22;25972;51.854;4.534;2022-07-06T05:58:33;26.90;88.60
40253;DHT22;25972;51.854;4.534;2022-07-06T06:01:00;26.80;87.80
40253;DHT22;25972;51.854;4.534;2022-07-06T06:03:25;27.00;87.50
40253;DHT22;25972;51.854;4.534;2022-07-06T06:05:51;26.90;86.90
40253;DHT22;25972;51.854;4.534;2022-07-06T06:08:19;27.10;86.70
40253;DHT22;25972;51.854;4.534;2022-07-06T06:10:46;27.20;86.30
40253;DHT22;25972;51.854;4.534;2022-07-06T06:13:14;27.50;85.70
40253;DHT22;25972;51.854;4.534;2022-07-06T06:15:40;27.70;85.00
40253;DHT22;25972;51.854;4.534;2022-07-06T06:18:06;27.80;84.10
40253;DHT22;25972;51.854;4.534;2022-07-06T06:20:32;28.10;83.60
40253;DHT22;25972;51.854;4.534;2022-07-06T06:22:59;28.20;83.50
40253;DHT22;25972;51.854;4.534;2022-07-06T06:25:36;28.10;83.10
40253;DHT22;25972;51.854;4.534;2022-07-06T06:28:04;28.00;81.80
40253;DHT22;25972;51.854;4.534;2022-07-06T06:30:31;27.70;82.70
40253;DHT22;25972;51.854;4.534;2022-07-06T06:33:08;27.60;82.70
40253;DHT22;25972;51.854;4.534;2022-07-06T06:35:34;27.40;82.60
40253;DHT22;25972;51.854;4.534;2022-07-06T06:38:00;27.10;83.30
40253;DHT22;25972;51.854;4.534;2022-07-06T06:40:25;26.70;83.30
40253;DHT22;25972;51.854;4.534;2022-07-06T06:42:51;26.40;83.50
40253;DHT22;25972;51.854;4.534;2022-07-06T06:45:17;26.10;83.60
40253;DHT22;25972;51.854;4.534;2022-07-06T06:47:42;25.60;83.70
40253;DHT22;25972;51.854;4.534;2022-07-06T06:50:08;25.70;84.10
40253;DHT22;25972;51.854;4.534;2022-07-06T06:52:34;25.60;84.30
40253;DHT22;25972;51.854;4.534;2022-07-06T06:54:59;25.30;84.30
40253;DHT22;25972;51.854;4.534;2022-07-06T06:57:26;25.40;83.60
40253;DHT22;25972;51.854;4.534;2022-07-06T06:59:51;25.60;83.10
40253;DHT22;25972;51.854;4.534;2022-07-06T07:02:17;25.50;82.90
40253;DHT22;25972;51.854;4.534;2022-07-06T07:04:43;25.60;82.90
40253;DHT22;25972;51.854;4.534;2022-07-06T07:07:09;25.60;82.70
40253;DHT22;25972;51.854;4.534;2022-07-06T07:09:35;25.50;83.00
40253;DHT22;25972;51.854;4.534;2022-07-06T07:12:01;25.70;81.80
40253;DHT22;25972;51.854;4.534;2022-07-06T07:14:27;25.70;81.60
40253;DHT22;25972;51.854;4.534;2022-07-06T07:16:53;25.70;81.80
40253;DHT22;25972;51.854;4.534;2022-07-06T07:19:19;25.80;81.70
40253;DHT22;25972;51.854;4.534;2022-07-06T07:21:44;25.90;81.60
40253;DHT22;25972;51.854;4.534;2022-07-06T07:24:10;25.70;81.60
40253;DHT22;25972;51.854;4.534;2022-07-06T07:26:36;25.90;81.50
40253;DHT22;25972;51.854;4.534;2022-07-06T07:29:03;25.60;80.70
40253;DHT22;25972;51.854;4.534;2022-07-06T07:31:29;25.80;80.80
40253;DHT22;25972;51.854;4.534;2022-07-06T07:33:54;25.70;79.90
40253;DHT22;25972;51.854;4.534;2022-07-06T07:36:23;25.90;79.80
40253;DHT22;25972;51.854;4.534;2022-07-06T07:38:49;25.60;79.60
40253;DHT22;25972;51.854;4.534;2022-07-06T07:41:15;25.90;79.10
40253;DHT22;25972;51.854;4.534;2022-07-06T07:43:42;25.90;78.70
40253;DHT22;25972;51.854;4.534;2022-07-06T07:46:08;25.90;78.70
40253;DHT22;25972;51.854;4.534;2022-07-06T07:48:34;26.00;78.30
40253;DHT22;25972;51.854;4.534;2022-07-06T07:51:00;25.80;78.10
40253;DHT22;25972;51.854;4.534;2022-07-06T07:53:26;25.80;78.10
40253;DHT22;25972;51.854;4.534;2022-07-06T07:55:52;25.70;77.70
40253;DHT22;25972;51.854;4.534;2022-07-06T07:58:18;25.30;77.30
40253;DHT22;25972;51.854;4.534;2022-07-06T08:00:45;25.40;77.30
40253;DHT22;25972;51.854;4.534;2022-07-06T08:03:11;25.50;76.30
40253;DHT22;25972;51.854;4.534;2022-07-06T08:05:37;25.40;76.00
40253;DHT22;25972;51.854;4.534;2022-07-06T08:08:03;25.40;75.90
40253;DHT22;25972;51.854;4.534;2022-07-06T08:10:29;25.40;76.10
40253;DHT22;25972;51.854;4.534;2022-07-06T08:12:55;25.50;76.10
40253;DHT22;25972;51.854;4.534;2022-07-06T08:15:21;25.50;75.90
40253;DHT22;25972;51.854;4.534;2022-07-06T08:17:47;25.60;76.00
40253;DHT22;25972;51.854;4.534;2022-07-06T08:20:14;25.80;75.40
40253;DHT22;25972;51.854;4.534;2022-07-06T08:22:42;25.80;75.10
40253;DHT22;25972;51.854;4.534;2022-07-06T08:25:08;26.00;75.00
40253;DHT22;25972;51.854;4.534;2022-07-06T08:27:34;26.10;75.00
40253;DHT22;25972;51.854;4.534;2022-07-06T08:30:02;26.10;74.60
40253;DHT22;25972;51.854;4.534;2022-07-06T08:32:28;26.00;74.60
40253;DHT22;25972;51.854;4.534;2022-07-06T08:34:54;25.70;75.00
40253;DHT22;25972;51.854;4.534;2022-07-06T08:37:19;25.60;74.90
40253;DHT22;25972;51.854;4.534;2022-07-06T08:39:45;25.40;74.40
40253;DHT22;25972;51.854;4.534;2022-07-06T08:42:12;25.30;74.50
40253;DHT22;25972;51.854;4.534;2022-07-06T08:44:41;25.10;74.00
40253;DHT22;25972;51.854;4.534;2022-07-06T08:47:07;25.10;74.90
40253;DHT22;25972;51.854;4.534;2022-07-06T08:49:38;25.20;74.40
40253;DHT22;25972;51.854;4.534;2022-07-06T08:52:05;25.20;74.50
40253;DHT22;25972;51.854;4.534;2022-07-06T08:54:31;25.20;74.40
40253;DHT22;25972;51.854;4.534;2022-07-06T08:56:57;25.10;74.40
40253;DHT22;25972;51.854;4.534;2022-07-06T08:59:25;25.20;74.40
40253;DHT22;25972;51.854;4.534;2022-07-06T09:01:51;25.10;74.60
40253;DHT22;25972;51.854;4.534;2022-07-06T09:04:22;25.20;75.60
40253;DHT22;25972;51.854;4.534;2022-07-06T09:06:48;25.20;74.30
40253;DHT22;25972;51.854;4.534;2022-07-06T09:09:19;25.00;75.00
40253;DHT22;25972;51.854;4.534;2022-07-06T09:11:46;24.90;75.20
40253;DHT22;25972;51.854;4.534;2022-07-06T09:14:12;24.90;75.60
40253;DHT22;25972;51.854;4.534;2022-07-06T09:16:37;24.90;75.60
40253;DHT22;25972;51.854;4.534;2022-07-06T09:19:03;24.90;75.80
40253;DHT22;25972;51.854;4.534;2022-07-06T09:21:31;24.90;75.40
40253;DHT22;25972;51.854;4.534;2022-07-06T09:23:59;24.80;75.50
40253;DHT22;25972;51.854;4.534;2022-07-06T09:26:26;24.80;75.80
40253;DHT22;25972;51.854;4.534;2022-07-06T09:28:55;24.90;76.30
40253;DHT22;25972;51.854;4.534;2022-07-06T09:31:21;25.20;76.20
40253;DHT22;25972;51.854;4.534;2022-07-06T09:33:54;25.40;75.90
40253;DHT22;25972;51.854;4.534;2022-07-06T09:36:37;25.40;76.00
40253;DHT22;25972;51.854;4.534;2022-07-06T09:41:47;25.60;76.10
40253;DHT22;25972;51.854;4.534;2022-07-06T09:44:17;25.40;76.20
40253;DHT22;25972;51.854;4.534;2022-07-06T09:46:46;25.40;76.00
40253;DHT22;25972;51.854;4.534;2022-07-06T09:49:12;25.30;74.80
40253;DHT22;25972;51.854;4.534;2022-07-06T09:51:41;25.40;75.10
40253;DHT22;25972;51.854;4.534;2022-07-06T09:54:07;25.40;75.30
40253;DHT22;25972;51.854;4.534;2022-07-06T09:56:41;25.40;76.30
40253;DHT22;25972;51.854;4.534;2022-07-06T09:59:11;25.40;75.60
40253;DHT22;25972;51.854;4.534;2022-07-06T10:01:38;25.50;75.20
40253;DHT22;25972;51.854;4.534;2022-07-06T10:04:10;25.70;75.40
40253;DHT22;25972;51.854;4.534;2022-07-06T10:06:39;26.00;74.80
40253;DHT22;25972;51.854;4.534;2022-07-06T10:09:09;26.20;75.00
40253;DHT22;25972;51.854;4.534;2022-07-06T10:11:38;26.40;74.80
40253;DHT22;25972;51.854;4.534;2022-07-06T10:14:06;26.50;74.40
40253;DHT22;25972;51.854;4.534;2022-07-06T10:16:37;26.60;74.10
40253;DHT22;25972;51.854;4.534;2022-07-06T10:19:08;26.10;74.20
40253;DHT22;25972;51.854;4.534;2022-07-06T10:21:39;26.20;74.40
40253;DHT22;25972;51.854;4.534;2022-07-06T10:24:07;26.00;74.30
40253;DHT22;25972;51.854;4.534;2022-07-06T10:26:34;26.20;74.90
40253;DHT22;25972;51.854;4.534;2022-07-06T10:29:02;25.80;75.60
40253;DHT22;25972;51.854;4.534;2022-07-06T10:31:31;25.50;76.80
40253;DHT22;25972;51.854;4.534;2022-07-06T10:34:00;25.00;77.30
40253;DHT22;25972;51.854;4.534;2022-07-06T10:36:26;25.20;78.00
40253;DHT22;25972;51.854;4.534;2022-07-06T10:38:53;25.40;77.70
40253;DHT22;25972;51.854;4.534;2022-07-06T10:41:33;25.50;77.30
40253;DHT22;25972;51.854;4.534;2022-07-06T10:44:18;25.60;77.80
40253;DHT22;25972;51.854;4.534;2022-07-06T10:46:53;25.50;76.40
40253;DHT22;25972;51.854;4.534;2022-07-06T10:49:20;25.70;76.20
40253;DHT22;25972;51.854;4.534;2022-07-06T10:51:47;25.60;77.10
40253;DHT22;25972;51.854;4.534;2022-07-06T10:54:17;25.40;77.70
40253;DHT22;25972;51.854;4.534;2022-07-06T10:56:48;25.70;78.20
40253;DHT22;25972;51.854;4.534;2022-07-06T10:59:23;25.30;77.50
40253;DHT22;25972;51.854;4.534;2022-07-06T11:02:12;25.30;78.80
40253;DHT22;25972;51.854;4.534;2022-07-06T11:04:40;25.60;78.80
40253;DHT22;25972;51.854;4.534;2022-07-06T11:07:10;25.70;78.60
40253;DHT22;25972;51.854;4.534;2022-07-06T11:09:36;25.90;78.10
40253;DHT22;25972;51.854;4.534;2022-07-06T11:12:19;25.30;78.30
40253;DHT22;25972;51.854;4.534;2022-07-06T11:14:47;25.30;77.90
40253;DHT22;25972;51.854;4.534;2022-07-06T11:17:14;25.40;78.40
40253;DHT22;25972;51.854;4.534;2022-07-06T11:19:56;25.40;78.20
40253;DHT22;25972;51.854;4.534;2022-07-06T11:22:22;25.70;77.80
40253;DHT22;25972;51.854;4.534;2022-07-06T11:24:50;26.00;78.60
40253;DHT22;25972;51.854;4.534;2022-07-06T11:27:22;26.10;78.20
40253;DHT22;25972;51.854;4.534;2022-07-06T11:29:48;26.30;77.50
40253;DHT22;25972;51.854;4.534;2022-07-06T11:32:15;26.30;77.00
40253;DHT22;25972;51.854;4.534;2022-07-06T11:34:42;26.40;77.40
40253;DHT22;25972;51.854;4.534;2022-07-06T11:37:13;26.70;77.20
40253;DHT22;25972;51.854;4.534;2022-07-06T11:39:41;26.40;76.60
40253;DHT22;25972;51.854;4.534;2022-07-06T11:42:09;26.30;76.50
40253;DHT22;25972;51.854;4.534;2022-07-06T11:44:35;26.10;76.20
40253;DHT22;25972;51.854;4.534;2022-07-06T11:47:02;26.00;76.60
40253;DHT22;25972;51.854;4.534;2022-07-06T11:49:33;26.10;76.90
40253;DHT22;25972;51.854;4.534;2022-07-06T11:52:00;26.20;76.50
40253;DHT22;25972;51.854;4.534;2022-07-06T11:54:26;26.10;76.20
40253;DHT22;25972;51.854;4.534;2022-07-06T11:56:57;26.20;76.80
40253;DHT22;25972;51.854;4.534;2022-07-06T11:59:27;26.00;76.70
40253;DHT22;25972;51.854;4.534;2022-07-06T12:02:08;26.10;76.70
40253;DHT22;25972;51.854;4.534;2022-07-06T12:04:36;26.50;78.50
40253;DHT22;25972;51.854;4.534;2022-07-06T12:07:05;26.50;78.10
40253;DHT22;25972;51.854;4.534;2022-07-06T12:09:35;26.60;77.20
40253;DHT22;25972;51.854;4.534;2022-07-06T12:12:02;26.50;76.90
40253;DHT22;25972;51.854;4.534;2022-07-06T12:14:31;26.70;77.20
40253;DHT22;25972;51.854;4.534;2022-07-06T12:17:12;26.50;77.60
40253;DHT22;25972;51.854;4.534;2022-07-06T12:19:39;26.90;77.30
40253;DHT22;25972;51.854;4.534;2022-07-06T12:22:07;26.50;78.00
40253;DHT22;25972;51.854;4.534;2022-07-06T12:24:34;26.10;78.00
40253;DHT22;25972;51.854;4.534;2022-07-06T12:27:16;26.30;78.30
40253;DHT22;25972;51.854;4.534;2022-07-06T12:29:42;26.40;78.00
40253;DHT22;25972;51.854;4.534;2022-07-06T12:32:15;26.30;78.00
40253;DHT22;25972;51.854;4.534;2022-07-06T12:34:41;26.30;77.80
40253;DHT22;25972;51.854;4.534;2022-07-06T12:37:09;26.20;77.80
40253;DHT22;25972;51.854;4.534;2022-07-06T12:39:43;25.90;77.70
40253;DHT22;25972;51.854;4.534;2022-07-06T12:42:10;26.10;77.40
40253;DHT22;25972;51.854;4.534;2022-07-06T12:44:47;25.50;78.10
40253;DHT22;25972;51.854;4.534;2022-07-06T12:47:20;25.60;78.50
40253;DHT22;25972;51.854;4.534;2022-07-06T12:49:47;25.40;78.60
40253;DHT22;25972;51.854;4.534;2022-07-06T12:52:14;25.30;79.40
40253;DHT22;25972;51.854;4.534;2022-07-06T12:54:49;25.30;79.70
40253;DHT22;25972;51.854;4.534;2022-07-06T12:57:22;25.10;79.50
40253;DHT22;25972;51.854;4.534;2022-07-06T13:02:23;25.30;80.50
40253;DHT22;25972;51.854;4.534;2022-07-06T13:07:22;25.30;80.60
40253;DHT22;25972;51.854;4.534;2022-07-06T13:09:47;25.40;80.60
40253;DHT22;25972;51.854;4.534;2022-07-06T13:12:13;25.40;80.80
40253;DHT22;25972;51.854;4.534;2022-07-06T13:14:39;25.40;81.30
40253;DHT22;25972;51.854;4.534;2022-07-06T13:17:05;25.40;81.70
40253;DHT22;25972;51.854;4.534;2022-07-06T13:19:30;25.20;81.60
40253;DHT22;25972;51.854;4.534;2022-07-06T13:21:56;25.10;82.10
40253;DHT22;25972;51.854;4.534;2022-07-06T13:24:22;25.10;82.20
40253;DHT22;25972;51.854;4.534;2022-07-06T13:26:48;25.10;82.40
40253;DHT22;25972;51.854;4.534;2022-07-06T13:29:14;25.20;82.60
40253;DHT22;25972;51.854;4.534;2022-07-06T13:31:40;25.20;83.10
40253;DHT22;25972;51.854;4.534;2022-07-06T13:34:06;24.90;84.30
40253;DHT22;25972;51.854;4.534;2022-07-06T13:36:33;24.60;83.60
40253;DHT22;25972;51.854;4.534;2022-07-06T13:38:59;24.90;83.20
40253;DHT22;25972;51.854;4.534;2022-07-06T13:41:25;24.90;83.30
40253;DHT22;25972;51.854;4.534;2022-07-06T13:43:51;24.90;83.90
40253;DHT22;25972;51.854;4.534;2022-07-06T13:46:17;24.90;84.50
40253;DHT22;25972;51.854;4.534;2022-07-06T13:48:43;25.10;84.40
40253;DHT22;25972;51.854;4.534;2022-07-06T13:51:09;25.00;85.10
40253;DHT22;25972;51.854;4.534;2022-07-06T13:53:35;24.70;85.30
40253;DHT22;25972;51.854;4.534;2022-07-06T13:56:02;24.50;85.30
40253;DHT22;25972;51.854;4.534;2022-07-06T13:58:28;24.10;86.30
40253;DHT22;25972;51.854;4.534;2022-07-06T14:00:54;23.90;86.80
40253;DHT22;25972;51.854;4.534;2022-07-06T14:03:20;23.90;86.80
40253;DHT22;25972;51.854;4.534;2022-07-06T14:05:45;23.80;86.90
40253;DHT22;25972;51.854;4.534;2022-07-06T14:08:11;23.90;88.10
40253;DHT22;25972;51.854;4.534;2022-07-06T14:10:38;24.00;86.90
40253;DHT22;25972;51.854;4.534;2022-07-06T14:13:03;24.00;87.00
40253;DHT22;25972;51.854;4.534;2022-07-06T14:15:29;23.90;87.10
40253;DHT22;25972;51.854;4.534;2022-07-06T14:17:55;23.80;86.70
40253;DHT22;25972;51.854;4.534;2022-07-06T14:20:21;23.60;87.00
40253;DHT22;25972;51.854;4.534;2022-07-06T14:22:47;24.00;86.80
40253;DHT22;25972;51.854;4.534;2022-07-06T14:25:12;24.00;86.90
40253;DHT22;25972;51.854;4.534;2022-07-06T14:27:38;23.90;86.50
40253;DHT22;25972;51.854;4.534;2022-07-06T14:30:06;23.90;86.20
40253;DHT22;25972;51.854;4.534;2022-07-06T14:32:32;23.90;86.00
40253;DHT22;25972;51.854;4.534;2022-07-06T14:34:58;23.70;86.50
40253;DHT22;25972;51.854;4.534;2022-07-06T14:37:24;23.90;87.30
40253;DHT22;25972;51.854;4.534;2022-07-06T14:39:49;24.10;88.10
40253;DHT22;25972;51.854;4.534;2022-07-06T14:42:16;24.30;88.70
40253;DHT22;25972;51.854;4.534;2022-07-06T14:44:42;24.40;89.40
40253;DHT22;25972;51.854;4.534;2022-07-06T14:47:07;24.40;89.40
40253;DHT22;25972;51.854;4.534;2022-07-06T14:49:33;24.50;90.00
40253;DHT22;25972;51.854;4.534;2022-07-06T14:51:59;24.60;89.70
40253;DHT22;25972;51.854;4.534;2022-07-06T14:54:25;24.70;89.80
40253;DHT22;25972;51.854;4.534;2022-07-06T14:56:51;24.60;90.20
40253;DHT22;25972;51.854;4.534;2022-07-06T14:59:17;24.50;90.30
40253;DHT22;25972;51.854;4.534;2022-07-06T15:01:43;24.30;90.50
40253;DHT22;25972;51.854;4.534;2022-07-06T15:04:10;24.20;90.50
40253;DHT22;25972;51.854;4.534;2022-07-06T15:06:36;24.20;90.40
40253;DHT22;25972;51.854;4.534;2022-07-06T15:09:03;24.30;90.10
40253;DHT22;25972;51.854;4.534;2022-07-06T15:11:33;24.40;89.90
40253;DHT22;25972;51.854;4.534;2022-07-06T15:13:59;24.50;89.70
40253;DHT22;25972;51.854;4.534;2022-07-06T15:16:24;24.60;89.40
40253;DHT22;25972;51.854;4.534;2022-07-06T15:18:51;24.30;89.40
40253;DHT22;25972;51.854;4.534;2022-07-06T15:21:17;24.30;89.90
40253;DHT22;25972;51.854;4.534;2022-07-06T15:23:43;24.50;90.00
40253;DHT22;25972;51.854;4.534;2022-07-06T15:26:08;24.70;90.00
40253;DHT22;25972;51.854;4.534;2022-07-06T15:28:34;24.60;90.00
40253;DHT22;25972;51.854;4.534;2022-07-06T15:31:00;24.70;90.10
40253;DHT22;25972;51.854;4.534;2022-07-06T15:33:26;24.80;89.90
40253;DHT22;25972;51.854;4.534;2022-07-06T15:35:52;24.90;90.00
40253;DHT22;25972;51.854;4.534;2022-07-06T15:38:18;24.90;89.40